Time;durP1;ratioP1;P1;durP2;ratioP2;P2;SDS_P1;SDS_P2;PMS_P1;PMS_P2;Temp;Humidity;BMP_temperature;BMP_pressure;BME280_temperature;BME280_humidity;BME280_pressure;Samples;Min_cycle;Max_cycle;Signal;HPM_P1;HPM_P2
2023/01/31 00:00:41;;;;;;;28.77;3.90;;;3.10;99.90;;;;;;5067529;28;20033;-55
2023/01/31 00:03:07;;;;;;;23.33;4.03;;;3.00;99.90;;;;;;5067361;28;20131;-55
2023/01/31 00:05:32;;;;;;;24.67;3.37;;;3.00;99.90;;;;;;5065412;28;20517;-52
2023/01/31 00:07:59;;;;;;;21.07;3.77;;;3.00;99.90;;;;;;5068367;28;20075;-55
2023/01/31 00:10:25;;;;;;;27.00;2.92;;;3.00;99.90;;;;;;5067965;28;20043;-54
2023/01/31 00:12:50;;;;;;;25.57;3.70;;;2.90;99.90;;;;;;5071728;28;20036;-57
2023/01/31 00:15:17;;;;;;;29.53;5.80;;;2.90;99.90;;;;;;5072228;28;20105;-57
2023/01/31 00:17:43;;;;;;;23.85;3.70;;;2.90;99.90;;;;;;5070583;28;20113;-57
2023/01/31 00:20:09;;;;;;;26.52;5.50;;;2.90;99.90;;;;;;5071796;28;20540;-54
2023/01/31 00:22:35;;;;;;;27.40;4.00;;;2.90;99.90;;;;;;5071596;28;20078;-56
2023/01/31 00:25:00;;;;;;;24.63;4.37;;;2.90;99.90;;;;;;5071498;28;20119;-54
2023/01/31 00:27:26;;;;;;;23.00;3.27;;;2.80;99.90;;;;;;5071153;28;20032;-52
2023/01/31 00:29:52;;;;;;;18.87;4.17;;;2.80;99.90;;;;;;5068994;28;20042;-54
2023/01/31 00:32:17;;;;;;;39.47;6.43;;;2.80;99.90;;;;;;5071563;28;20040;-56
2023/01/31 00:34:43;;;;;;;32.03;5.00;;;2.80;99.90;;;;;;5071171;28;20044;-52
2023/01/31 00:37:09;;;;;;;39.30;4.95;;;2.80;99.90;;;;;;5071801;28;20301;-53
2023/01/31 00:39:34;;;;;;;19.40;4.10;;;2.80;99.90;;;;;;5071075;28;20043;-53
2023/01/31 00:42:00;;;;;;;32.90;4.07;;;2.80;99.90;;;;;;5070829;28;20032;-53
2023/01/31 00:44:25;;;;;;;18.57;2.70;;;2.70;99.90;;;;;;5071339;28;20448;-57
2023/01/31 00:46:51;;;;;;;21.10;3.33;;;2.70;99.90;;;;;;5071991;28;20036;-55
2023/01/31 00:49:16;;;;;;;20.97;2.33;;;2.70;99.90;;;;;;5071632;28;20144;-53
2023/01/31 00:51:43;;;;;;;26.83;3.70;;;2.70;99.90;;;;;;5071355;28;20040;-54
2023/01/31 00:54:09;;;;;;;;;;;2.70;99.90;;;;;;5070965;28;20462;-55
2023/01/31 00:56:36;;;;;;;14.68;2.83;;;2.70;99.90;;;;;;5071063;28;20019;-53
2023/01/31 00:59:07;;;;;;;23.15;4.00;;;2.70;99.90;;;;;;5070248;28;20048;-55
2023/01/31 01:01:34;;;;;;;16.75;2.30;;;2.70;99.90;;;;;;5071228;28;20594;-55
2023/01/31 01:04:00;;;;;;;35.63;4.25;;;2.70;99.90;;;;;;5070342;28;20036;-52
2023/01/31 01:06:26;;;;;;;24.35;4.32;;;2.70;99.90;;;;;;5071365;28;20047;-52
2023/01/31 01:08:52;;;;;;;;;;;2.70;99.90;;;;;;5070049;28;20109;-55
2023/01/31 01:11:26;;;;;;;22.73;3.88;;;2.70;99.90;;;;;;5070496;28;20381;-53
2023/01/31 01:13:52;;;;;;;21.88;2.67;;;2.70;99.90;;;;;;5067715;28;20047;-55
2023/01/31 01:16:24;;;;;;;22.20;4.00;;;2.70;99.90;;;;;;5070971;28;20047;-55
2023/01/31 01:18:53;;;;;;;26.52;4.85;;;2.70;99.90;;;;;;5068148;28;20401;-52
2023/01/31 01:21:21;;;;;;;19.90;2.65;;;2.60;99.90;;;;;;5069562;28;20044;-56
2023/01/31 01:23:48;;;;;;;21.02;3.13;;;2.60;99.90;;;;;;5068847;28;20028;-54
2023/01/31 01:26:15;;;;;;;18.17;3.30;;;2.60;99.90;;;;;;5070952;28;20028;-55
2023/01/31 01:28:41;;;;;;;16.98;2.90;;;2.60;99.90;;;;;;5070615;28;20036;-55
2023/01/31 01:31:08;;;;;;;26.10;4.07;;;2.60;99.90;;;;;;5070373;28;20043;-53
2023/01/31 01:33:35;;;;;;;18.13;3.40;;;2.60;99.90;;;;;;5069745;28;20535;-54
2023/01/31 01:36:06;;;;;;;18.15;2.80;;;2.60;99.90;;;;;;5070442;28;20091;-51
2023/01/31 01:38:36;;;;;;;15.25;3.40;;;2.60;99.90;;;;;;5070295;28;20122;-55
2023/01/31 01:41:03;;;;;;;13.13;2.15;;;2.60;99.90;;;;;;5070473;28;20098;-56
2023/01/31 01:43:39;;;;;;;17.63;2.22;;;2.60;99.90;;;;;;5051410;28;20098;-54
2023/01/31 01:46:07;;;;;;;23.80;2.63;;;2.50;99.90;;;;;;5070435;28;20047;-53
2023/01/31 01:48:32;;;;;;;19.77;2.28;;;2.50;99.90;;;;;;5069121;28;20032;-57
2023/01/31 01:50:58;;;;;;;17.07;2.43;;;2.50;99.90;;;;;;5070059;28;20037;-55
2023/01/31 01:53:27;;;;;;;13.57;2.83;;;2.50;99.90;;;;;;5069316;28;20076;-51
2023/01/31 01:55:59;;;;;;;18.35;2.17;;;2.50;99.90;;;;;;5067635;28;20053;-54
2023/01/31 01:58:32;;;;;;;16.02;2.00;;;2.60;99.90;;;;;;5068742;28;20090;-52
2023/01/31 02:00:58;;;;;;;10.20;1.52;;;2.60;99.90;;;;;;5070224;28;20033;-56
2023/01/31 02:03:25;;;;;;;22.25;3.63;;;2.60;99.90;;;;;;5067900;28;20153;-55
2023/01/31 02:05:57;;;;;;;22.40;3.25;;;2.70;99.90;;;;;;5070388;28;20111;-55
2023/01/31 02:08:25;;;;;;;17.38;2.38;;;2.70;99.90;;;;;;5069911;28;20044;-55
2023/01/31 02:10:56;;;;;;;22.13;3.95;;;2.70;99.90;;;;;;5070096;28;20056;-54
2023/01/31 02:13:23;;;;;;;12.98;2.28;;;2.70;99.90;;;;;;5068501;28;20029;-55
2023/01/31 02:15:48;;;;;;;20.52;2.75;;;2.80;99.90;;;;;;5069792;28;20048;-57
2023/01/31 02:18:15;;;;;;;20.77;3.37;;;2.80;99.90;;;;;;5069496;28;20425;-53
2023/01/31 02:21:18;;;;;;;18.80;2.95;;;2.80;99.90;;;;;;5069230;28;20448;-53
2023/01/31 02:24:05;;;;;;;17.48;2.53;;;2.90;99.90;;;;;;5068551;28;20486;-54
2023/01/31 02:27:07;;;;;;;20.80;2.38;;;2.90;99.90;;;;;;5069834;28;20104;-53
2023/01/31 02:30:04;;;;;;;17.50;2.90;;;2.90;99.90;;;;;;5069113;28;20089;-58
2023/01/31 02:32:58;;;;;;;25.38;2.85;;;2.90;99.90;;;;;;5069264;28;20042;-52
2023/01/31 02:36:00;;;;;;;18.13;1.88;;;3.00;99.90;;;;;;5069478;28;20379;-53
2023/01/31 02:38:59;;;;;;;18.80;4.00;;;3.00;99.90;;;;;;5069251;28;20068;-55
2023/01/31 02:41:42;;;;;;;20.70;2.67;;;3.00;99.90;;;;;;5068748;28;20037;-55
2023/01/31 02:47:38;;;;;;;27.35;5.88;;;3.10;99.90;;;;;;5069548;28;20128;-52
2023/01/31 02:50:29;;;;;;;16.63;2.45;;;3.20;99.90;;;;;;5069126;28;20379;-55
2023/01/31 02:53:10;;;;;;;35.60;3.65;;;3.20;99.90;;;;;;5068261;28;20071;-52
2023/01/31 02:58:34;;;;;;;24.85;4.30;;;3.30;99.90;;;;;;5069784;28;20052;-52
2023/01/31 03:01:03;;;;;;;18.83;2.50;;;3.30;99.90;;;;;;5068984;28;20128;-56
2023/01/31 03:03:32;;;;;;;21.13;2.28;;;3.30;99.90;;;;;;5067863;28;20132;-56
2023/01/31 03:06:28;;;;;;;13.05;3.17;;;3.40;99.90;;;;;;5068624;28;20033;-52
2023/01/31 03:09:05;;;;;;;15.90;2.55;;;3.40;99.90;;;;;;5068852;28;20041;-52
2023/01/31 03:11:52;;;;;;;16.85;2.28;;;3.30;99.90;;;;;;5068588;28;21346;-55
2023/01/31 03:14:36;;;;;;;17.80;2.50;;;3.20;99.90;;;;;;5065338;28;20062;-54
2023/01/31 03:17:31;;;;;;;28.00;3.35;;;3.20;99.90;;;;;;5068971;28;20040;-55
2023/01/31 03:20:06;;;;;;;25.27;2.83;;;3.20;99.90;;;;;;5048476;28;20060;-55
2023/01/31 03:22:39;;;;;;;20.45;2.95;;;3.20;99.90;;;;;;5067865;28;20059;-53
2023/01/31 03:25:08;;;;;;;18.55;2.55;;;3.20;99.90;;;;;;5068216;28;20090;-54
2023/01/31 03:27:36;;;;;;;23.35;3.05;;;3.20;99.90;;;;;;5068762;28;20089;-53
2023/01/31 03:30:11;;;;;;;15.95;2.67;;;3.20;99.90;;;;;;5068588;28;20033;-55
2023/01/31 03:32:44;;;;;;;25.67;4.20;;;3.20;99.90;;;;;;5068107;28;20078;-51
2023/01/31 03:35:10;;;;;;;22.17;3.05;;;3.20;99.90;;;;;;5067852;28;20568;-52
2023/01/31 03:37:38;;;;;;;19.63;3.92;;;3.30;99.90;;;;;;5068633;28;20063;-52
2023/01/31 03:40:14;;;;;;;19.80;3.10;;;3.30;99.90;;;;;;5068288;28;20041;-54
2023/01/31 03:43:01;;;;;;;8.68;2.28;;;3.30;99.90;;;;;;5068563;28;20537;-56
2023/01/31 03:45:39;;;;;;;17.55;3.30;;;3.30;99.90;;;;;;5067155;28;20589;-54
2023/01/31 03:48:12;;;;;;;18.67;3.40;;;3.30;99.90;;;;;;5067952;28;20036;-56
2023/01/31 03:50:47;;;;;;;16.67;2.58;;;3.40;99.90;;;;;;5067585;28;20387;-55
2023/01/31 03:53:23;;;;;;;23.75;3.40;;;3.40;99.90;;;;;;5067138;28;20385;-54
2023/01/31 03:56:03;;;;;;;17.13;2.30;;;3.40;99.90;;;;;;5065568;28;20032;-55
2023/01/31 03:58:34;;;;;;;20.13;2.97;;;3.40;99.90;;;;;;5068391;28;20040;-54
2023/01/31 04:01:03;;;;;;;24.65;4.10;;;3.40;99.90;;;;;;5067803;28;20531;-55
2023/01/31 04:03:39;;;;;;;24.70;4.43;;;3.40;99.90;;;;;;5067388;28;20086;-55
2023/01/31 04:06:05;;;;;;;32.05;3.72;;;3.40;99.90;;;;;;5066485;28;20043;-52
2023/01/31 04:08:32;;;;;;;13.77;2.05;;;3.40;99.90;;;;;;5067334;28;20033;-52
2023/01/31 04:10:58;;;;;;;16.08;2.88;;;3.40;99.90;;;;;;5067312;28;20067;-53
2023/01/31 04:13:24;;;;;;;23.00;2.35;;;3.50;99.90;;;;;;5067296;28;20032;-55
2023/01/31 04:15:49;;;;;;;29.20;3.57;;;3.50;99.90;;;;;;5068207;28;20476;-55
2023/01/31 04:18:15;;;;;;;22.37;4.37;;;3.50;99.90;;;;;;5068377;28;20047;-54
2023/01/31 04:20:41;;;;;;;23.90;2.50;;;3.50;99.90;;;;;;5067281;28;20431;-56
2023/01/31 04:23:06;;;;;;;16.93;2.23;;;3.50;99.90;;;;;;5066952;28;20036;-56
2023/01/31 04:25:32;;;;;;;20.23;2.90;;;3.60;99.90;;;;;;5068164;28;20393;-54
2023/01/31 04:27:57;;;;;;;22.57;2.80;;;3.60;99.90;;;;;;5068369;28;20036;-54
2023/01/31 04:30:23;;;;;;;22.47;4.00;;;3.60;99.90;;;;;;5065949;28;20121;-52
2023/01/31 04:32:49;;;;;;;29.43;4.10;;;3.70;99.90;;;;;;5067379;28;20060;-56
2023/01/31 04:35:14;;;;;;;31.50;3.57;;;3.70;99.90;;;;;;5067057;28;20044;-54
2023/01/31 04:37:40;;;;;;;18.03;3.37;;;3.70;99.90;;;;;;5068096;28;20350;-54
2023/01/31 04:40:06;;;;;;;21.30;4.20;;;3.70;99.90;;;;;;5067545;28;20059;-53
2023/01/31 04:42:32;;;;;;;19.38;3.10;;;3.80;99.90;;;;;;5068038;28;20043;-54
2023/01/31 04:44:58;;;;;;;22.60;3.83;;;3.80;99.90;;;;;;5067371;28;20523;-54
2023/01/31 04:47:24;;;;;;;18.98;4.03;;;3.90;99.90;;;;;;5068250;28;20485;-53
2023/01/31 04:49:49;;;;;;;18.17;4.17;;;4.00;99.90;;;;;;5067263;28;20063;-54
2023/01/31 04:52:15;;;;;;;22.47;3.70;;;4.10;99.90;;;;;;5067548;28;20037;-55
2023/01/31 04:54:41;;;;;;;25.30;4.10;;;4.10;99.90;;;;;;5067063;28;20044;-57
2023/01/31 04:57:06;;;;;;;27.10;5.88;;;4.20;99.90;;;;;;5067563;28;20082;-55
2023/01/31 04:59:32;;;;;;;23.47;4.07;;;4.30;99.90;;;;;;5070484;28;20037;-55
2023/01/31 05:01:58;;;;;;;30.93;3.50;;;4.30;99.90;;;;;;5071040;28;20067;-54
2023/01/31 05:04:25;;;;;;;24.10;3.70;;;4.30;99.90;;;;;;5070218;28;20063;-56
2023/01/31 05:06:51;;;;;;;23.75;3.60;;;4.40;99.90;;;;;;5071429;28;20041;-55
2023/01/31 05:09:17;;;;;;;23.02;4.07;;;4.40;99.90;;;;;;5071104;28;20107;-52
2023/01/31 05:11:43;;;;;;;28.60;4.73;;;4.40;99.90;;;;;;5069377;28;20033;-53
2023/01/31 05:14:08;;;;;;;28.90;4.90;;;4.50;99.90;;;;;;5069171;28;20283;-57
2023/01/31 05:16:34;;;;;;;24.30;5.53;;;4.50;99.90;;;;;;5070808;28;20051;-54
2023/01/31 05:19:00;;;;;;;26.80;3.40;;;4.60;99.90;;;;;;5070610;28;20037;-55
2023/01/31 05:21:25;;;;;;;29.17;4.93;;;4.60;99.90;;;;;;5070821;28;20502;-52
2023/01/31 05:23:51;;;;;;;30.27;4.97;;;4.70;99.90;;;;;;5070290;28;20039;-55
2023/01/31 05:26:17;;;;;;;28.40;5.80;;;4.70;99.90;;;;;;5071026;28;20454;-55
2023/01/31 05:28:42;;;;;;;38.50;5.87;;;4.70;99.90;;;;;;5070448;28;20043;-54
2023/01/31 05:31:08;;;;;;;31.70;5.07;;;4.60;99.90;;;;;;5070908;28;20547;-52
2023/01/31 05:33:34;;;;;;;24.93;5.00;;;4.60;99.90;;;;;;5069718;28;20036;-53
2023/01/31 05:36:00;;;;;;;27.63;4.90;;;4.70;99.90;;;;;;5070387;28;20541;-54
2023/01/31 05:38:26;;;;;;;19.15;5.72;;;4.70;99.90;;;;;;5070746;28;20127;-52
2023/01/31 05:40:52;;;;;;;27.55;5.30;;;4.70;99.90;;;;;;5069858;28;20379;-54
2023/01/31 05:43:17;;;;;;;32.30;7.17;;;4.70;99.90;;;;;;5069006;28;20086;-55
2023/01/31 05:45:43;;;;;;;46.13;6.70;;;4.70;99.90;;;;;;5070538;28;20080;-52
2023/01/31 05:48:09;;;;;;;26.13;5.72;;;4.70;99.90;;;;;;5070360;28;20044;-56
2023/01/31 05:50:35;;;;;;;42.50;9.30;;;4.80;99.90;;;;;;5066899;28;20040;-52
2023/01/31 05:53:02;;;;;;;19.33;5.17;;;4.80;99.90;;;;;;5067723;28;20289;-56
2023/01/31 05:55:28;;;;;;;30.05;7.22;;;4.80;99.90;;;;;;5070579;28;20322;-53
2023/01/31 05:57:54;;;;;;;31.88;5.72;;;4.80;99.90;;;;;;5070359;28;20041;-55
2023/01/31 06:00:20;;;;;;;24.02;6.65;;;4.80;99.90;;;;;;5067484;28;20041;-53
2023/01/31 06:02:47;;;;;;;36.67;6.70;;;4.80;99.90;;;;;;5069633;28;20032;-54
2023/01/31 06:05:12;;;;;;;23.58;6.82;;;4.90;99.90;;;;;;5069547;28;20036;-54
2023/01/31 06:07:39;;;;;;;33.00;9.10;;;4.90;99.90;;;;;;5070338;28;20035;-54
2023/01/31 06:10:06;;;;;;;36.05;8.10;;;4.90;99.90;;;;;;5069310;28;20371;-56
2023/01/31 06:12:32;;;;;;;33.80;8.63;;;4.90;99.90;;;;;;5070378;28;20044;-53
2023/01/31 06:14:58;;;;;;;40.85;8.30;;;5.00;99.90;;;;;;5069111;28;20036;-54
2023/01/31 06:17:23;;;;;;;30.70;8.10;;;5.00;99.90;;;;;;5069958;28;20025;-56
2023/01/31 06:19:49;;;;;;;33.50;8.90;;;5.00;99.90;;;;;;5069315;28;20443;-55
2023/01/31 06:22:15;;;;;;;43.47;11.18;;;5.00;99.90;;;;;;5067476;28;20127;-53
2023/01/31 06:24:40;;;;;;;27.30;9.00;;;5.10;99.90;;;;;;5069430;28;20413;-52
2023/01/31 06:27:06;;;;;;;35.43;7.83;;;5.10;99.90;;;;;;5069987;28;20035;-55
2023/01/31 06:29:31;;;;;;;40.97;10.93;;;5.10;99.90;;;;;;5069709;28;20043;-52
2023/01/31 06:31:57;;;;;;;32.93;8.83;;;5.20;99.90;;;;;;5069151;28;20052;-56
2023/01/31 06:34:22;;;;;;;47.50;9.87;;;5.20;99.90;;;;;;5067420;28;20089;-52
2023/01/31 06:36:48;;;;;;;37.83;10.20;;;5.30;99.90;;;;;;5069681;28;20032;-55
2023/01/31 06:39:14;;;;;;;37.57;9.77;;;5.30;99.90;;;;;;5069270;28;20368;-52
2023/01/31 06:41:40;;;;;;;37.63;9.50;;;5.30;99.90;;;;;;5069475;28;20028;-54
2023/01/31 06:44:06;;;;;;;40.25;10.65;;;5.30;99.90;;;;;;5067235;28;20397;-53
2023/01/31 06:46:32;;;;;;;51.58;11.15;;;5.40;99.90;;;;;;5068971;28;20032;-53
2023/01/31 06:48:57;;;;;;;30.90;8.80;;;5.40;99.90;;;;;;5068432;28;20338;-52
2023/01/31 06:51:23;;;;;;;45.50;11.50;;;5.40;99.90;;;;;;5069251;28;20039;-57
2023/01/31 06:53:50;;;;;;;33.33;8.63;;;5.50;99.90;;;;;;5068570;28;20036;-56
2023/01/31 06:56:16;;;;;;;33.05;8.68;;;5.40;99.90;;;;;;5068330;28;20036;-52
2023/01/31 06:58:42;;;;;;;37.30;10.33;;;5.50;99.90;;;;;;5068857;28;20090;-55
2023/01/31 07:01:12;;;;;;;23.00;8.03;;;5.50;99.90;;;;;;5068173;28;20044;-55
2023/01/31 07:03:38;;;;;;;31.55;9.32;;;5.50;99.90;;;;;;5068321;28;20041;-55
2023/01/31 07:06:05;;;;;;;32.97;8.70;;;5.50;99.90;;;;;;5068755;28;20064;-54
2023/01/31 07:08:31;;;;;;;32.08;8.75;;;5.50;99.90;;;;;;5069063;28;20047;-53
2023/01/31 07:10:57;;;;;;;34.05;9.07;;;5.50;99.90;;;;;;5068248;28;20044;-52
2023/01/31 07:13:23;;;;;;;31.13;8.77;;;5.60;99.90;;;;;;5068484;28;20040;-53
2023/01/31 07:15:49;;;;;;;33.90;7.73;;;5.60;99.90;;;;;;5066798;28;20090;-54
2023/01/31 07:18:14;;;;;;;29.17;9.30;;;5.70;99.90;;;;;;5064973;28;20044;-56
2023/01/31 07:20:41;;;;;;;35.78;9.57;;;5.70;99.90;;;;;;5063049;28;20049;-54
2023/01/31 07:23:07;;;;;;;;;;;5.70;99.90;;;;;;5068102;28;20033;-54
2023/01/31 07:25:33;;;;;;;35.58;7.70;;;5.70;99.90;;;;;;5068970;28;20011;-56
2023/01/31 07:28:00;;;;;;;34.28;7.10;;;5.70;99.90;;;;;;5068444;28;20120;-53
2023/01/31 07:30:26;;;;;;;34.88;7.45;;;5.70;99.90;;;;;;5067826;28;20040;-53
2023/01/31 07:32:52;;;;;;;33.88;7.65;;;5.80;99.90;;;;;;5067761;28;20040;-57
2023/01/31 07:35:18;;;;;;;28.30;6.37;;;5.80;99.90;;;;;;5068459;28;20037;-53
2023/01/31 07:37:44;;;;;;;20.48;7.20;;;5.80;99.90;;;;;;5068308;28;20645;-53
2023/01/31 07:40:13;;;;;;;28.83;6.78;;;5.80;99.90;;;;;;5068294;28;20044;-55
2023/01/31 07:42:39;;;;;;;27.80;6.13;;;5.90;99.90;;;;;;5068135;28;20032;-55
2023/01/31 07:45:06;;;;;;;23.80;6.07;;;5.90;99.90;;;;;;5067770;28;20405;-52
2023/01/31 07:47:31;;;;;;;18.35;5.03;;;5.90;99.90;;;;;;5068459;28;20110;-56
2023/01/31 07:49:57;;;;;;;26.20;5.40;;;5.90;99.90;;;;;;5068113;28;20448;-52
2023/01/31 07:52:23;;;;;;;23.67;7.10;;;6.00;99.90;;;;;;5067765;28;20029;-54
2023/01/31 07:54:48;;;;;;;27.07;5.90;;;6.00;99.90;;;;;;5067142;28;20044;-55
2023/01/31 07:57:16;;;;;;;30.70;5.23;;;6.00;99.90;;;;;;5067843;28;20778;-54
2023/01/31 07:59:43;;;;;;;27.27;5.75;;;6.00;99.90;;;;;;5066022;28;20083;-53
2023/01/31 08:04:56;;;;;;;27.88;5.72;;;6.00;99.90;;;;;;5066328;28;20041;-55
2023/01/31 08:07:22;;;;;;;17.07;5.23;;;6.10;99.90;;;;;;5067938;28;20032;-56
2023/01/31 08:09:49;;;;;;;25.20;5.57;;;6.00;99.90;;;;;;5067491;28;20080;-55
2023/01/31 08:12:14;;;;;;;36.35;6.40;;;6.10;99.90;;;;;;5067377;28;20047;-54
2023/01/31 08:14:40;;;;;;;27.77;6.60;;;6.10;99.90;;;;;;5067322;28;20036;-55
2023/01/31 08:17:07;;;;;;;24.33;6.33;;;6.10;99.90;;;;;;5067437;28;20417;-53
2023/01/31 08:19:33;;;;;;;;;;;6.10;99.90;;;;;;5067822;28;20052;-55
2023/01/31 08:21:59;;;;;;;28.25;5.10;;;6.10;99.90;;;;;;5066613;28;20373;-57
2023/01/31 08:24:24;;;;;;;31.42;7.53;;;6.10;99.90;;;;;;5067300;28;20029;-57
2023/01/31 08:26:50;;;;;;;24.13;5.70;;;6.10;99.90;;;;;;5068783;28;20097;-55
2023/01/31 08:29:16;;;;;;;19.10;5.37;;;6.10;99.90;;;;;;5067163;28;20541;-57
2023/01/31 08:31:41;;;;;;;27.20;6.28;;;6.20;99.90;;;;;;5068330;28;20127;-53
2023/01/31 08:34:07;;;;;;;23.67;7.73;;;6.20;99.90;;;;;;5071109;28;20064;-53
2023/01/31 08:36:34;;;;;;;22.35;5.82;;;6.10;99.90;;;;;;5071505;28;20060;-55
2023/01/31 08:39:00;;;;;;;22.33;4.85;;;6.20;99.90;;;;;;5068896;28;20040;-55
2023/01/31 08:41:27;;;;;;;25.50;6.20;;;6.20;99.90;;;;;;5070860;28;20190;-52
2023/01/31 08:43:54;;;;;;;29.10;5.97;;;6.20;99.90;;;;;;5068419;28;20032;-55
2023/01/31 08:46:20;;;;;;;23.80;6.45;;;6.20;99.90;;;;;;5070892;28;20036;-56
2023/01/31 08:48:46;;;;;;;31.15;5.90;;;6.20;99.90;;;;;;5070540;28;20075;-59
2023/01/31 08:51:12;;;;;;;25.87;6.27;;;6.20;99.90;;;;;;5071058;28;20511;-53
2023/01/31 08:53:39;;;;;;;;;;;6.20;99.90;;;;;;5070678;28;20111;-55
2023/01/31 08:56:07;;;;;;;23.95;5.28;;;6.20;99.90;;;;;;5071420;28;19989;-59
2023/01/31 08:58:34;;;;;;;21.45;7.18;;;6.30;99.90;;;;;;5070733;28;20761;-57
2023/01/31 09:01:11;;;;;;;28.63;7.32;;;6.30;99.90;;;;;;5068674;28;20040;-57
2023/01/31 09:03:37;;;;;;;22.95;7.25;;;6.30;99.90;;;;;;5070433;28;20463;-57
2023/01/31 09:06:06;;;;;;;29.05;6.63;;;6.30;99.90;;;;;;5070751;28;20500;-58
2023/01/31 09:08:32;;;;;;;25.38;6.65;;;6.30;99.90;;;;;;5071406;28;20043;-55
2023/01/31 09:11:00;;;;;;;23.13;7.00;;;6.30;99.90;;;;;;5071059;28;20489;-58
2023/01/31 09:13:28;;;;;;;28.20;7.03;;;6.30;99.90;;;;;;5067908;28;20032;-57
2023/01/31 09:16:01;;;;;;;24.15;6.28;;;6.30;99.90;;;;;;5071137;28;20041;-58
2023/01/31 09:18:27;;;;;;;24.63;5.95;;;6.30;99.90;;;;;;5064298;28;20131;-60
2023/01/31 09:20:53;;;;;;;10.95;5.07;;;6.30;99.90;;;;;;5064194;28;20033;-58
2023/01/31 09:23:19;;;;;;;18.42;6.65;;;6.30;99.90;;;;;;5063377;28;20072;-58
2023/01/31 09:25:53;;;;;;;23.27;6.15;;;6.30;99.90;;;;;;5064185;28;20037;-59
2023/01/31 09:28:20;;;;;;;23.25;5.60;;;6.30;99.90;;;;;;5064422;28;20044;-59
2023/01/31 09:30:46;;;;;;;14.90;5.57;;;6.30;99.90;;;;;;5066201;28;20056;-59
2023/01/31 09:33:11;;;;;;;18.60;5.03;;;6.40;99.90;;;;;;5062805;28;20417;-59
2023/01/31 09:35:37;;;;;;;23.43;6.93;;;6.40;99.90;;;;;;5064221;28;20029;-58
2023/01/31 09:38:03;;;;;;;15.80;4.97;;;6.40;99.90;;;;;;5065668;28;20360;-60
2023/01/31 09:40:32;;;;;;;19.80;4.60;;;6.40;99.90;;;;;;5064678;28;20044;-59
2023/01/31 09:43:01;;;;;;;22.20;5.55;;;6.40;99.90;;;;;;5044966;28;20048;-60
2023/01/31 09:45:37;;;;;;;20.67;4.68;;;6.50;99.90;;;;;;5062636;28;20040;-60
2023/01/31 09:48:05;;;;;;;20.10;4.43;;;6.50;99.90;;;;;;5055949;28;20040;-60
2023/01/31 09:50:41;;;;;;;17.23;3.83;;;6.60;99.90;;;;;;5064189;28;20047;-60
2023/01/31 09:53:12;;;;;;;15.45;4.30;;;6.60;99.90;;;;;;5063366;28;20391;-60
2023/01/31 09:55:50;;;;;;;16.77;3.92;;;6.60;99.90;;;;;;5065936;28;20367;-57
2023/01/31 09:58:47;;;;;;;20.38;4.30;;;6.70;99.90;;;;;;5065610;28;20040;-60
2023/01/31 10:01:37;;;;;;;22.25;4.72;;;6.70;99.90;;;;;;5066464;28;20087;-59
2023/01/31 10:04:22;;;;;;;20.10;4.95;;;6.70;99.90;;;;;;5064890;28;20040;-58
2023/01/31 10:06:57;;;;;;;22.23;4.40;;;6.80;99.90;;;;;;5067687;28;20036;-60
2023/01/31 10:09:41;;;;;;;17.27;3.42;;;6.80;99.90;;;;;;5065518;28;20509;-60
2023/01/31 10:12:31;;;;;;;24.58;4.38;;;6.90;99.90;;;;;;5065409;28;20047;-60
2023/01/31 10:15:04;;;;;;;18.27;3.67;;;6.90;99.90;;;;;;5066289;28;20044;-60
2023/01/31 10:17:39;;;;;;;19.60;4.78;;;6.90;99.90;;;;;;5066173;28;20573;-59
2023/01/31 10:20:19;;;;;;;25.35;5.47;;;6.90;99.90;;;;;;5064703;28;20514;-61
2023/01/31 10:23:09;;;;;;;25.05;4.70;;;6.90;99.90;;;;;;5067414;28;20555;-58
2023/01/31 10:25:54;;;;;;;20.80;4.88;;;6.90;99.90;;;;;;5066970;28;20038;-60
2023/01/31 10:28:23;;;;;;;19.88;4.30;;;6.90;99.90;;;;;;5049207;28;20509;-58
2023/01/31 10:31:26;;;;;;;22.67;4.82;;;6.90;99.90;;;;;;5039278;28;20051;-60
2023/01/31 10:33:57;;;;;;;22.05;5.05;;;6.90;99.90;;;;;;5066586;28;20048;-59
2023/01/31 10:36:23;;;;;;;22.85;3.70;;;7.00;99.90;;;;;;5047335;28;20087;-61
2023/01/31 10:39:23;;;;;;;16.57;3.60;;;7.00;99.90;;;;;;5073859;28;20087;-60
2023/01/31 10:42:19;;;;;;;14.90;2.83;;;7.00;99.90;;;;;;5079104;28;20122;-59
2023/01/31 10:44:59;;;;;;;20.20;2.97;;;7.00;99.90;;;;;;5080622;28;20044;-58
2023/01/31 10:47:34;;;;;;;21.88;4.00;;;7.00;99.90;;;;;;5067439;28;20040;-58
2023/01/31 10:50:04;;;;;;;23.27;3.90;;;7.00;99.90;;;;;;5064761;28;20040;-58
2023/01/31 10:52:48;;;;;;;18.25;3.60;;;7.00;99.90;;;;;;5066005;28;20078;-57
2023/01/31 10:55:37;;;;;;;20.55;3.22;;;7.00;99.90;;;;;;5066505;28;20082;-59
2023/01/31 10:58:03;;;;;;;19.20;3.88;;;7.00;99.90;;;;;;5038625;28;20054;-57
2023/01/31 11:00:31;;;;;;;24.38;4.40;;;7.00;99.90;;;;;;5063114;28;20419;-58
2023/01/31 11:02:58;;;;;;;25.52;4.13;;;7.00;99.90;;;;;;5063293;28;20041;-58
2023/01/31 11:05:27;;;;;;;24.45;3.83;;;7.00;99.90;;;;;;5065996;28;20079;-58
2023/01/31 11:07:54;;;;;;;16.10;2.92;;;7.00;99.90;;;;;;5062393;28;20506;-58
2023/01/31 11:10:24;;;;;;;29.63;4.68;;;7.00;99.90;;;;;;5064259;28;20513;-58
2023/01/31 11:13:03;;;;;;;18.70;3.42;;;7.00;99.90;;;;;;5063578;28;20097;-58
2023/01/31 11:15:37;;;;;;;16.67;4.45;;;7.10;99.90;;;;;;5063845;28;20410;-59
2023/01/31 11:18:03;;;;;;;17.65;4.80;;;7.00;99.90;;;;;;5067469;28;20401;-58
2023/01/31 11:20:43;;;;;;;27.90;4.00;;;7.00;99.90;;;;;;5066114;28;20199;-58
2023/01/31 11:23:16;;;;;;;19.33;5.05;;;7.00;99.90;;;;;;5061608;28;20040;-58
2023/01/31 11:25:48;;;;;;;28.15;5.78;;;7.00;99.90;;;;;;5065896;28;20115;-57
2023/01/31 11:28:38;;;;;;;15.15;3.85;;;6.90;99.90;;;;;;5064030;28;20369;-58
2023/01/31 11:31:14;;;;;;;17.70;3.63;;;6.90;99.90;;;;;;5063337;28;20063;-58
2023/01/31 11:33:54;;;;;;;15.77;4.87;;;6.90;99.90;;;;;;5066911;28;20041;-58
2023/01/31 11:36:21;;;;;;;15.85;4.53;;;6.90;99.90;;;;;;5062616;28;20112;-58
2023/01/31 11:38:50;;;;;;;15.50;4.70;;;6.90;99.90;;;;;;5062044;28;20041;-58
2023/01/31 11:41:36;;;;;;;20.98;5.32;;;6.80;99.90;;;;;;5058191;28;20048;-58
2023/01/31 11:44:15;;;;;;;17.30;5.30;;;6.80;99.90;;;;;;5061420;28;20060;-58
2023/01/31 11:46:56;;;;;;;19.73;4.85;;;6.80;99.90;;;;;;5063077;28;20074;-58
2023/01/31 11:49:32;;;;;;;24.20;5.57;;;6.80;99.90;;;;;;5060569;28;20564;-58
2023/01/31 11:52:01;;;;;;;30.67;7.03;;;6.80;99.90;;;;;;5058196;28;20470;-58
2023/01/31 11:54:30;;;;;;;16.48;4.80;;;6.80;99.90;;;;;;5062634;28;20107;-58
2023/01/31 11:56:59;;;;;;;18.98;5.63;;;6.80;99.90;;;;;;5062634;28;20047;-58
2023/01/31 11:59:28;;;;;;;19.17;5.18;;;6.80;99.90;;;;;;5062426;28;20282;-58
2023/01/31 12:01:57;;;;;;;23.98;5.28;;;6.80;99.90;;;;;;5061221;28;20020;-57
2023/01/31 12:04:39;;;;;;;16.45;5.47;;;6.80;99.90;;;;;;5062429;28;20549;-58
2023/01/31 12:07:24;;;;;;;21.98;6.30;;;6.90;99.90;;;;;;5063377;28;20039;-59
2023/01/31 12:09:50;;;;;;;23.90;7.13;;;6.90;99.90;;;;;;5063663;28;20052;-58
2023/01/31 12:12:29;;;;;;;29.00;6.45;;;6.90;99.90;;;;;;5066139;28;20056;-57
2023/01/31 12:15:00;;;;;;;20.25;6.68;;;6.90;99.90;;;;;;5062563;28;20056;-58
2023/01/31 12:17:29;;;;;;;25.13;7.80;;;6.90;99.90;;;;;;5067240;28;20040;-58
2023/01/31 12:20:13;;;;;;;24.60;6.18;;;6.90;99.90;;;;;;5064647;28;20082;-58
2023/01/31 12:22:47;;;;;;;27.27;6.38;;;7.00;99.90;;;;;;5067489;28;20048;-58
2023/01/31 12:25:41;;;;;;;27.52;6.55;;;7.00;99.90;;;;;;5065192;28;20039;-59
2023/01/31 12:28:57;;;;;;;16.58;5.75;;;7.00;99.90;;;;;;5064562;28;20036;-58
2023/01/31 12:31:39;;;;;;;20.58;6.10;;;7.10;99.90;;;;;;5003898;28;20132;-58
2023/01/31 12:34:40;;;;;;;32.80;7.65;;;7.10;99.90;;;;;;5003411;28;20042;-58
2023/01/31 12:37:25;;;;;;;25.30;6.00;;;7.20;99.90;;;;;;4944474;28;20050;-58
2023/01/31 12:40:01;;;;;;;17.52;4.63;;;7.30;99.90;;;;;;5004767;28;20041;-58
2023/01/31 12:42:56;;;;;;;24.30;5.65;;;7.30;99.90;;;;;;4990907;28;20045;-57
2023/01/31 12:45:55;;;;;;;20.48;5.45;;;7.30;99.90;;;;;;5003495;28;20025;-58
2023/01/31 12:48:29;;;;;;;16.33;3.67;;;7.40;99.90;;;;;;5004247;28;20057;-59
2023/01/31 12:51:02;;;;;;;24.27;5.18;;;7.40;99.90;;;;;;5008633;28;20101;-58
2023/01/31 12:54:03;;;;;;;26.23;4.63;;;7.50;99.90;;;;;;5003988;28;20136;-58
2023/01/31 12:56:46;;;;;;;20.45;4.47;;;7.50;99.90;;;;;;4953563;28;20515;-58
2023/01/31 12:59:12;;;;;;;22.98;4.55;;;7.60;99.90;;;;;;5001698;28;20463;-58
2023/01/31 13:01:54;;;;;;;23.80;4.50;;;7.60;99.90;;;;;;5005628;28;20454;-58
2023/01/31 13:04:29;;;;;;;15.52;3.20;;;7.60;99.90;;;;;;5005246;28;20038;-58
2023/01/31 13:07:02;;;;;;;15.55;4.32;;;7.60;99.90;;;;;;5033193;28;20047;-58
2023/01/31 13:09:33;;;;;;;22.80;4.70;;;7.60;99.90;;;;;;5068380;28;20043;-58
2023/01/31 13:12:13;;;;;;;19.13;3.42;;;7.60;99.90;;;;;;5084604;28;20421;-58
2023/01/31 13:15:04;;;;;;;25.35;4.50;;;7.70;99.90;;;;;;5065974;28;20056;-58
2023/01/31 13:17:33;;;;;;;15.35;3.10;;;7.70;99.90;;;;;;5060142;28;20173;-58